sensor_id;sensor_type;location;lat;lon;timestamp;pressure;altitude;pressure_sealevel;temperature;humidity
23223;BME280;11780;13.904;100.620;2023-11-19T00:01:04;101587.09;;;27.49;52.93
23223;BME280;11780;13.904;100.620;2023-11-19T00:03:35;101590.09;;;27.58;52.62
23223;BME280;11780;13.904;100.620;2023-11-19T00:06:05;101591.19;;;27.57;52.59
23223;BME280;11780;13.904;100.620;2023-11-19T00:08:36;101595.59;;;27.58;52.43
23223;BME280;11780;13.904;100.620;2023-11-19T00:11:06;101605.22;;;27.60;52.33
23223;BME280;11780;13.904;100.620;2023-11-19T00:13:36;101601.63;;;27.65;52.17
23223;BME280;11780;13.904;100.620;2023-11-19T00:16:07;101607.69;;;27.62;52.16
23223;BME280;11780;13.904;100.620;2023-11-19T00:18:39;101610.97;;;27.64;52.18
23223;BME280;11780;13.904;100.620;2023-11-19T00:21:09;101615.66;;;27.63;52.43
23223;BME280;11780;13.904;100.620;2023-11-19T00:23:40;101613.13;;;27.72;52.34
23223;BME280;11780;13.904;100.620;2023-11-19T00:26:10;101628.56;;;27.68;52.05
23223;BME280;11780;13.904;100.620;2023-11-19T00:28:43;101629.41;;;27.63;52.30
23223;BME280;11780;13.904;100.620;2023-11-19T00:31:13;101636.56;;;27.54;52.47
23223;BME280;11780;13.904;100.620;2023-11-19T00:33:44;101636.81;;;27.58;52.55
23223;BME280;11780;13.904;100.620;2023-11-19T00:36:16;101631.31;;;27.58;52.26
23223;BME280;11780;13.904;100.620;2023-11-19T00:38:47;101631.34;;;27.47;52.11
23223;BME280;11780;13.904;100.620;2023-11-19T00:41:17;101641.50;;;27.36;52.71
23223;BME280;11780;13.904;100.620;2023-11-19T00:43:48;101647.84;;;27.47;52.55
23223;BME280;11780;13.904;100.620;2023-11-19T00:46:18;101648.09;;;27.51;52.29
23223;BME280;11780;13.904;100.620;2023-11-19T00:48:49;101642.06;;;27.49;52.33
23223;BME280;11780;13.904;100.620;2023-11-19T00:51:19;101652.50;;;27.52;52.28
23223;BME280;11780;13.904;100.620;2023-11-19T00:53:50;101650.84;;;27.61;52.33
23223;BME280;11780;13.904;100.620;2023-11-19T00:56:20;101660.19;;;27.60;52.38
23223;BME280;11780;13.904;100.620;2023-11-19T00:58:51;101662.91;;;27.65;52.04
23223;BME280;11780;13.904;100.620;2023-11-19T01:01:21;101667.03;;;27.68;52.33
23223;BME280;11780;13.904;100.620;2023-11-19T01:03:51;101667.28;;;27.72;51.99
23223;BME280;11780;13.904;100.620;2023-11-19T01:06:31;101661.25;;;27.64;52.10
23223;BME280;11780;13.904;100.620;2023-11-19T01:09:02;101661.78;;;27.72;52.17
23223;BME280;11780;13.904;100.620;2023-11-19T01:12:04;101666.19;;;27.78;52.18
23223;BME280;11780;13.904;100.620;2023-11-19T01:14:35;101670.28;;;27.80;51.99
23223;BME280;11780;13.904;100.620;2023-11-19T01:17:05;101672.22;;;27.80;52.02
23223;BME280;11780;13.904;100.620;2023-11-19T01:19:36;101679.09;;;27.83;52.06
23223;BME280;11780;13.904;100.620;2023-11-19T01:22:06;101675.25;;;27.84;51.65
23223;BME280;11780;13.904;100.620;2023-11-19T01:24:36;101679.94;;;27.68;51.17
23223;BME280;11780;13.904;100.620;2023-11-19T01:27:06;101682.41;;;27.79;51.60
23223;BME280;11780;13.904;100.620;2023-11-19T01:29:37;101681.59;;;27.69;51.49
23223;BME280;11780;13.904;100.620;2023-11-19T01:32:07;101682.69;;;27.68;51.71
23223;BME280;11780;13.904;100.620;2023-11-19T01:34:38;101687.09;;;27.74;51.82
23223;BME280;11780;13.904;100.620;2023-11-19T01:37:08;101688.75;;;27.75;51.87
23223;BME280;11780;13.904;100.620;2023-11-19T01:39:40;101690.66;;;27.74;51.62
23223;BME280;11780;13.904;100.620;2023-11-19T01:42:10;101699.19;;;27.73;51.44
23223;BME280;11780;13.904;100.620;2023-11-19T01:44:41;101694.78;;;27.77;51.65
23223;BME280;11780;13.904;100.620;2023-11-19T01:47:11;101703.31;;;27.60;51.71
23223;BME280;11780;13.904;100.620;2023-11-19T01:49:42;101709.13;;;27.48;52.02
23223;BME280;11780;13.904;100.620;2023-11-19T01:52:12;101712.41;;;27.60;52.17
23223;BME280;11780;13.904;100.620;2023-11-19T01:54:42;101705.53;;;27.68;52.10
23223;BME280;11780;13.904;100.620;2023-11-19T01:57:14;101708.84;;;27.55;52.41
23223;BME280;11780;13.904;100.620;2023-11-19T01:59:44;101711.31;;;27.61;52.23
23223;BME280;11780;13.904;100.620;2023-11-19T02:02:14;101706.38;;;27.58;52.21
23223;BME280;11780;13.904;100.620;2023-11-19T02:04:49;101703.59;;;27.69;52.33
23223;BME280;11780;13.904;100.620;2023-11-19T02:07:21;101705.78;;;27.72;52.00
23223;BME280;11780;13.904;100.620;2023-11-19T02:09:52;101714.84;;;27.83;52.05
23223;BME280;11780;13.904;100.620;2023-11-19T02:12:22;101712.34;;;27.81;52.19
23223;BME280;11780;13.904;100.620;2023-11-19T02:14:52;101706.31;;;27.79;51.78
23223;BME280;11780;13.904;100.620;2023-11-19T02:17:31;101711.84;;;27.69;52.07
23223;BME280;11780;13.904;100.620;2023-11-19T02:20:03;101714.03;;;27.77;52.01
23223;BME280;11780;13.904;100.620;2023-11-19T02:22:36;101711.25;;;27.82;51.99
23223;BME280;11780;13.904;100.620;2023-11-19T02:25:21;101707.38;;;27.93;52.14
23223;BME280;11780;13.904;100.620;2023-11-19T02:30:27;101715.59;;;27.99;51.17
23223;BME280;11780;13.904;100.620;2023-11-19T02:32:59;101717.84;;;27.91;50.92
23223;BME280;11780;13.904;100.620;2023-11-19T02:35:34;101705.44;;;27.89;51.12
23223;BME280;11780;13.904;100.620;2023-11-19T02:38:04;101709.59;;;27.86;51.24
23223;BME280;11780;13.904;100.620;2023-11-19T02:40:36;101712.88;;;27.88;51.27
23223;BME280;11780;13.904;100.620;2023-11-19T02:43:06;101707.94;;;27.90;51.26
23223;BME280;11780;13.904;100.620;2023-11-19T02:45:37;101706.00;;;27.96;51.19
23223;BME280;11780;13.904;100.620;2023-11-19T02:48:08;101696.34;;;28.04;51.25
23223;BME280;11780;13.904;100.620;2023-11-19T02:50:38;101700.53;;;27.86;50.95
23223;BME280;11780;13.904;100.620;2023-11-19T02:53:08;101692.78;;;27.93;51.04
23223;BME280;11780;13.904;100.620;2023-11-19T02:55:38;101693.88;;;27.97;51.07
23223;BME280;11780;13.904;100.620;2023-11-19T02:58:10;101694.94;;;28.06;51.45
23223;BME280;11780;13.904;100.620;2023-11-19T03:00:50;101688.34;;;28.07;50.77
23223;BME280;11780;13.904;100.620;2023-11-19T03:03:32;101680.09;;;28.13;50.80
23223;BME280;11780;13.904;100.620;2023-11-19T03:06:08;101680.66;;;28.15;50.66
23223;BME280;11780;13.904;100.620;2023-11-19T03:08:39;101677.06;;;28.09;49.88
23223;BME280;11780;13.904;100.620;2023-11-19T03:11:09;101670.75;;;28.14;50.41
23223;BME280;11780;13.904;100.620;2023-11-19T03:13:40;101663.59;;;28.18;49.86
23223;BME280;11780;13.904;100.620;2023-11-19T03:16:10;101670.16;;;28.22;49.79
23223;BME280;11780;13.904;100.620;2023-11-19T03:18:41;101670.94;;;28.27;49.20
23223;BME280;11780;13.904;100.620;2023-11-19T03:21:11;101663.53;;;28.28;49.14
23223;BME280;11780;13.904;100.620;2023-11-19T03:23:42;101658.34;;;28.21;48.58
23223;BME280;11780;13.904;100.620;2023-11-19T03:26:13;101657.22;;;28.22;48.93
23223;BME280;11780;13.904;100.620;2023-11-19T03:28:43;101651.97;;;28.26;49.07
23223;BME280;11780;13.904;100.620;2023-11-19T03:31:13;101646.72;;;28.30;49.06
23223;BME280;11780;13.904;100.620;2023-11-19T03:33:43;101644.53;;;28.26;49.10
23223;BME280;11780;13.904;100.620;2023-11-19T03:36:14;101640.66;;;28.27;49.07
23223;BME280;11780;13.904;100.620;2023-11-19T03:38:44;101637.91;;;28.33;48.97
23223;BME280;11780;13.904;100.620;2023-11-19T03:41:15;101633.47;;;28.37;49.05
23223;BME280;11780;13.904;100.620;2023-11-19T03:43:46;101624.69;;;28.35;48.64
23223;BME280;11780;13.904;100.620;2023-11-19T03:46:18;101626.31;;;28.41;48.83
23223;BME280;11780;13.904;100.620;2023-11-19T03:48:49;101623.22;;;28.48;48.75
23223;BME280;11780;13.904;100.620;2023-11-19T03:51:20;101628.16;;;28.51;49.16
23223;BME280;11780;13.904;100.620;2023-11-19T03:53:50;101625.13;;;28.52;48.72
23223;BME280;11780;13.904;100.620;2023-11-19T03:56:20;101613.56;;;28.50;47.94
23223;BME280;11780;13.904;100.620;2023-11-19T03:58:51;101620.44;;;28.53;48.29
23223;BME280;11780;13.904;100.620;2023-11-19T04:01:22;101609.69;;;28.56;47.83
23223;BME280;11780;13.904;100.620;2023-11-19T04:03:52;101607.44;;;28.59;47.84
23223;BME280;11780;13.904;100.620;2023-11-19T04:06:22;101594.75;;;28.63;48.09
23223;BME280;11780;13.904;100.620;2023-11-19T04:08:52;101592.00;;;28.63;47.73
23223;BME280;11780;13.904;100.620;2023-11-19T04:11:23;101588.13;;;28.69;47.59
23223;BME280;11780;13.904;100.620;2023-11-19T04:13:53;101585.06;;;28.70;48.10
23223;BME280;11780;13.904;100.620;2023-11-19T04:16:27;101579.81;;;28.74;47.98
23223;BME280;11780;13.904;100.620;2023-11-19T04:18:58;101574.34;;;28.69;46.70
23223;BME280;11780;13.904;100.620;2023-11-19T04:21:28;101565.56;;;28.67;47.26
23223;BME280;11780;13.904;100.620;2023-11-19T04:23:59;101560.03;;;28.67;47.42
23223;BME280;11780;13.904;100.620;2023-11-19T04:26:29;101553.97;;;28.70;46.95
23223;BME280;11780;13.904;100.620;2023-11-19T04:29:00;101546.81;;;28.69;47.26
23223;BME280;11780;13.904;100.620;2023-11-19T04:31:31;101541.53;;;28.72;46.66
23223;BME280;11780;13.904;100.620;2023-11-19T04:34:01;101540.16;;;28.75;47.13
23223;BME280;11780;13.904;100.620;2023-11-19T04:36:31;101541.28;;;28.74;47.33
23223;BME280;11780;13.904;100.620;2023-11-19T04:39:02;101533.28;;;28.72;47.22
23223;BME280;11780;13.904;100.620;2023-11-19T04:41:45;101520.09;;;28.75;47.43
23223;BME280;11780;13.904;100.620;2023-11-19T04:44:16;101515.13;;;28.77;47.05
23223;BME280;11780;13.904;100.620;2023-11-19T04:46:47;101510.13;;;28.79;47.02
23223;BME280;11780;13.904;100.620;2023-11-19T04:49:17;101508.72;;;28.81;47.39
23223;BME280;11780;13.904;100.620;2023-11-19T04:51:49;101500.47;;;28.81;47.37
23223;BME280;11780;13.904;100.620;2023-11-19T04:54:20;101496.66;;;28.77;47.67
23223;BME280;11780;13.904;100.620;2023-11-19T04:56:51;101488.63;;;28.81;48.04
23223;BME280;11780;13.904;100.620;2023-11-19T04:59:21;101486.41;;;28.83;48.22
23223;BME280;11780;13.904;100.620;2023-11-19T05:01:51;101480.09;;;28.82;48.05
23223;BME280;11780;13.904;100.620;2023-11-19T05:04:21;101470.94;;;28.87;48.30
23223;BME280;11780;13.904;100.620;2023-11-19T05:06:52;101463.78;;;28.86;47.85
23223;BME280;11780;13.904;100.620;2023-11-19T05:09:23;101466.25;;;28.88;48.10
23223;BME280;11780;13.904;100.620;2023-11-19T05:11:53;101458.59;;;28.84;48.27
23223;BME280;11780;13.904;100.620;2023-11-19T05:14:23;101459.69;;;28.83;48.38
23223;BME280;11780;13.904;100.620;2023-11-19T05:16:54;101454.19;;;28.83;48.48
23223;BME280;11780;13.904;100.620;2023-11-19T05:19:24;101446.47;;;28.85;48.33
23223;BME280;11780;13.904;100.620;2023-11-19T05:21:55;101437.00;;;28.92;48.39
23223;BME280;11780;13.904;100.620;2023-11-19T05:24:25;101428.75;;;28.92;48.56
23223;BME280;11780;13.904;100.620;2023-11-19T05:26:55;101439.75;;;28.92;48.00
23223;BME280;11780;13.904;100.620;2023-11-19T05:29:25;101430.91;;;28.95;48.19
23223;BME280;11780;13.904;100.620;2023-11-19T05:31:57;101430.88;;;29.00;48.71
23223;BME280;11780;13.904;100.620;2023-11-19T05:34:28;101416.78;;;29.01;48.68
23223;BME280;11780;13.904;100.620;2023-11-19T05:36:58;101414.56;;;29.04;48.62
23223;BME280;11780;13.904;100.620;2023-11-19T05:39:29;101411.28;;;29.01;48.43
23223;BME280;11780;13.904;100.620;2023-11-19T05:41:59;101407.41;;;29.02;48.02
23223;BME280;11780;13.904;100.620;2023-11-19T05:44:29;101392.53;;;29.04;47.54
23223;BME280;11780;13.904;100.620;2023-11-19T05:46:59;101386.22;;;29.03;47.32
23223;BME280;11780;13.904;100.620;2023-11-19T05:49:30;101382.03;;;29.06;47.48
23223;BME280;11780;13.904;100.620;2023-11-19T05:52:01;101380.78;;;29.17;48.61
23223;BME280;11780;13.904;100.620;2023-11-19T05:54:33;101365.00;;;29.23;48.41
23223;BME280;11780;13.904;100.620;2023-11-19T05:57:07;101368.94;;;29.16;47.60
23223;BME280;11780;13.904;100.620;2023-11-19T05:59:39;101365.66;;;29.14;47.30
23223;BME280;11780;13.904;100.620;2023-11-19T06:02:09;101351.31;;;29.17;47.82
23223;BME280;11780;13.904;100.620;2023-11-19T06:04:39;101355.72;;;29.19;46.45
23223;BME280;11780;13.904;100.620;2023-11-19T06:07:10;101347.66;;;29.22;46.36
23223;BME280;11780;13.904;100.620;2023-11-19T06:09:40;101333.13;;;29.16;46.23
23223;BME280;11780;13.904;100.620;2023-11-19T06:12:10;101332.03;;;29.17;45.72
23223;BME280;11780;13.904;100.620;2023-11-19T06:14:40;101329.47;;;29.21;45.82
23223;BME280;11780;13.904;100.620;2023-11-19T06:17:11;101327.84;;;29.20;46.24
23223;BME280;11780;13.904;100.620;2023-11-19T06:19:42;101316.00;;;29.20;45.73
23223;BME280;11780;13.904;100.620;2023-11-19T06:22:12;101309.34;;;29.21;45.06
23223;BME280;11780;13.904;100.620;2023-11-19T06:24:42;101304.09;;;29.24;45.42
23223;BME280;11780;13.904;100.620;2023-11-19T06:27:12;101301.63;;;29.23;44.72
23223;BME280;11780;13.904;100.620;2023-11-19T06:29:42;101294.78;;;29.20;45.42
23223;BME280;11780;13.904;100.620;2023-11-19T06:32:12;101287.56;;;29.24;46.00
23223;BME280;11780;13.904;100.620;2023-11-19T06:34:43;101285.81;;;29.28;46.77
23223;BME280;11780;13.904;100.620;2023-11-19T06:37:13;101280.03;;;29.30;46.50
23223;BME280;11780;13.904;100.620;2023-11-19T06:39:43;101281.66;;;29.31;46.51
23223;BME280;11780;13.904;100.620;2023-11-19T06:42:13;101268.97;;;29.35;47.51
23223;BME280;11780;13.904;100.620;2023-11-19T06:44:43;101273.34;;;29.36;47.93
23223;BME280;11780;13.904;100.620;2023-11-19T06:47:14;101268.06;;;29.40;48.21
23223;BME280;11780;13.904;100.620;2023-11-19T06:49:44;101262.84;;;29.38;48.89
23223;BME280;11780;13.904;100.620;2023-11-19T06:52:16;101262.84;;;29.38;47.57
23223;BME280;11780;13.904;100.620;2023-11-19T06:54:47;101259.78;;;29.40;47.52
23223;BME280;11780;13.904;100.620;2023-11-19T06:57:17;101267.22;;;29.39;46.87
23223;BME280;11780;13.904;100.620;2023-11-19T06:59:47;101257.13;;;29.35;46.18
23223;BME280;11780;13.904;100.620;2023-11-19T07:02:18;101260.06;;;29.38;46.78
23223;BME280;11780;13.904;100.620;2023-11-19T07:04:50;101249.06;;;29.38;46.02
23223;BME280;11780;13.904;100.620;2023-11-19T07:07:21;101249.06;;;29.38;46.70
23223;BME280;11780;13.904;100.620;2023-11-19T07:09:51;101237.22;;;29.38;46.73
23223;BME280;11780;13.904;100.620;2023-11-19T07:12:21;101226.22;;;29.38;46.64
23223;BME280;11780;13.904;100.620;2023-11-19T07:14:52;101234.69;;;29.41;46.88
23223;BME280;11780;13.904;100.620;2023-11-19T07:17:22;101236.41;;;29.37;46.40
23223;BME280;11780;13.904;100.620;2023-11-19T07:19:53;101235.59;;;29.37;45.53
23223;BME280;11780;13.904;100.620;2023-11-19T07:22:24;101220.38;;;29.39;46.96
23223;BME280;11780;13.904;100.620;2023-11-19T07:24:55;101222.34;;;29.39;46.17
23223;BME280;11780;13.904;100.620;2023-11-19T07:27:26;101220.63;;;29.43;45.94
23223;BME280;11780;13.904;100.620;2023-11-19T07:29:57;101227.72;;;29.44;45.68
23223;BME280;11780;13.904;100.620;2023-11-19T07:32:27;101220.69;;;29.38;45.69
23223;BME280;11780;13.904;100.620;2023-11-19T07:34:58;101216.50;;;29.40;44.91
23223;BME280;11780;13.904;100.620;2023-11-19T07:37:28;101220.38;;;29.39;44.77
23223;BME280;11780;13.904;100.620;2023-11-19T07:39:58;101216.81;;;29.39;44.95
23223;BME280;11780;13.904;100.620;2023-11-19T07:42:28;101211.31;;;29.39;45.12
23223;BME280;11780;13.904;100.620;2023-11-19T07:44:58;101216.22;;;29.42;45.18
23223;BME280;11780;13.904;100.620;2023-11-19T07:47:29;101208.25;;;29.40;45.29
23223;BME280;11780;13.904;100.620;2023-11-19T07:50:00;101204.09;;;29.43;45.50
23223;BME280;11780;13.904;100.620;2023-11-19T07:52:30;101204.38;;;29.41;45.33
23223;BME280;11780;13.904;100.620;2023-11-19T07:55:00;101201.09;;;29.39;45.58
23223;BME280;11780;13.904;100.620;2023-11-19T07:57:31;101204.56;;;29.45;45.69
23223;BME280;11780;13.904;100.620;2023-11-19T08:00:02;101186.41;;;29.44;46.05
23223;BME280;11780;13.904;100.620;2023-11-19T08:02:38;101191.63;;;29.45;45.58
23223;BME280;11780;13.904;100.620;2023-11-19T08:05:09;101188.03;;;29.45;45.42
23223;BME280;11780;13.904;100.620;2023-11-19T08:07:39;101187.63;;;29.52;46.13
23223;BME280;11780;13.904;100.620;2023-11-19T08:10:11;101186.31;;;29.49;45.44
23223;BME280;11780;13.904;100.620;2023-11-19T08:12:41;101181.13;;;29.47;45.43
23223;BME280;11780;13.904;100.620;2023-11-19T08:15:12;101184.38;;;29.50;45.04
23223;BME280;11780;13.904;100.620;2023-11-19T08:17:57;101180.50;;;29.51;44.96
23223;BME280;11780;13.904;100.620;2023-11-19T08:20:28;101169.50;;;29.51;44.87
23223;BME280;11780;13.904;100.620;2023-11-19T08:22:58;101168.47;;;29.46;45.51
23223;BME280;11780;13.904;100.620;2023-11-19T08:25:29;101171.09;;;29.52;45.20
23223;BME280;11780;13.904;100.620;2023-11-19T08:28:00;101171.09;;;29.52;45.73
23223;BME280;11780;13.904;100.620;2023-11-19T08:30:30;101163.34;;;29.54;46.52
23223;BME280;11780;13.904;100.620;2023-11-19T08:33:01;101169.16;;;29.52;45.38
23223;BME280;11780;13.904;100.620;2023-11-19T08:35:33;101166.41;;;29.52;45.27
23223;BME280;11780;13.904;100.620;2023-11-19T08:38:03;101168.66;;;29.50;45.04
23223;BME280;11780;13.904;100.620;2023-11-19T08:40:33;101161.00;;;29.47;44.83
23223;BME280;11780;13.904;100.620;2023-11-19T08:43:04;101164.59;;;29.47;44.38
23223;BME280;11780;13.904;100.620;2023-11-19T08:45:34;101166.22;;;29.49;44.81
23223;BME280;11780;13.904;100.620;2023-11-19T08:48:04;101175.28;;;29.49;44.93
23223;BME280;11780;13.904;100.620;2023-11-19T08:50:35;101165.91;;;29.50;44.55
23223;BME280;11780;13.904;100.620;2023-11-19T08:53:05;101170.81;;;29.53;45.13
23223;BME280;11780;13.904;100.620;2023-11-19T08:55:36;101169.69;;;29.54;44.79
23223;BME280;11780;13.904;100.620;2023-11-19T08:58:06;101168.06;;;29.53;44.83
23223;BME280;11780;13.904;100.620;2023-11-19T09:00:36;101169.16;;;29.52;44.77
23223;BME280;11780;13.904;100.620;2023-11-19T09:03:07;101172.25;;;29.51;43.66
23223;BME280;11780;13.904;100.620;2023-11-19T09:05:39;101175.00;;;29.51;43.53
23223;BME280;11780;13.904;100.620;2023-11-19T09:08:10;101167.84;;;29.50;43.60
23223;BME280;11780;13.904;100.620;2023-11-19T09:10:41;101174.69;;;29.52;43.71
23223;BME280;11780;13.904;100.620;2023-11-19T09:13:12;101168.47;;;29.46;43.30
23223;BME280;11780;13.904;100.620;2023-11-19T09:15:42;101167.22;;;29.53;44.21
23223;BME280;11780;13.904;100.620;2023-11-19T09:18:12;101175.50;;;29.53;43.73
23223;BME280;11780;13.904;100.620;2023-11-19T09:20:43;101178.03;;;29.49;43.20
23223;BME280;11780;13.904;100.620;2023-11-19T09:23:13;101179.38;;;29.52;42.82
23223;BME280;11780;13.904;100.620;2023-11-19T09:25:44;101180.50;;;29.51;43.40
23223;BME280;11780;13.904;100.620;2023-11-19T09:28:14;101173.84;;;29.52;43.93
23223;BME280;11780;13.904;100.620;2023-11-19T09:30:45;101186.50;;;29.53;44.26
23223;BME280;11780;13.904;100.620;2023-11-19T09:33:15;101183.28;;;29.51;43.84
23223;BME280;11780;13.904;100.620;2023-11-19T09:35:45;101188.16;;;29.54;44.51
23223;BME280;11780;13.904;100.620;2023-11-19T09:38:16;101196.41;;;29.54;45.13
23223;BME280;11780;13.904;100.620;2023-11-19T09:40:46;101193.16;;;29.52;43.69
23223;BME280;11780;13.904;100.620;2023-11-19T09:43:17;101195.81;;;29.57;43.91
23223;BME280;11780;13.904;100.620;2023-11-19T09:45:49;101202.44;;;29.56;44.21
23223;BME280;11780;13.904;100.620;2023-11-19T09:48:25;101211.56;;;29.56;43.91
23223;BME280;11780;13.904;100.620;2023-11-19T09:50:56;101201.94;;;29.54;43.96
23223;BME280;11780;13.904;100.620;2023-11-19T09:53:26;101205.53;;;29.54;44.21
23223;BME280;11780;13.904;100.620;2023-11-19T09:55:56;101208.88;;;29.51;44.54
23223;BME280;11780;13.904;100.620;2023-11-19T09:58:27;101208.06;;;29.51;44.39
23223;BME280;11780;13.904;100.620;2023-11-19T10:00:58;101206.94;;;29.52;44.67
23223;BME280;11780;13.904;100.620;2023-11-19T10:03:50;101216.84;;;29.53;44.93
23223;BME280;11780;13.904;100.620;2023-11-19T10:06:24;101215.19;;;29.52;45.04
23223;BME280;11780;13.904;100.620;2023-11-19T10:08:56;101219.09;;;29.51;45.17
23223;BME280;11780;13.904;100.620;2023-11-19T10:11:27;101221.94;;;29.45;44.61
23223;BME280;11780;13.904;100.620;2023-11-19T10:13:59;101224.91;;;29.49;44.56
23223;BME280;11780;13.904;100.620;2023-11-19T10:16:30;101227.44;;;29.45;44.67
23223;BME280;11780;13.904;100.620;2023-11-19T10:19:01;101224.09;;;29.49;44.86
23223;BME280;11780;13.904;100.620;2023-11-19T10:21:35;101227.72;;;29.44;44.89
23223;BME280;11780;13.904;100.620;2023-11-19T10:24:05;101232.75;;;29.42;44.93
23223;BME280;11780;13.904;100.620;2023-11-19T10:26:37;101237.34;;;29.46;44.97
23223;BME280;11780;13.904;100.620;2023-11-19T10:29:07;101236.25;;;29.47;45.39
23223;BME280;11780;13.904;100.620;2023-11-19T10:31:37;101242.88;;;29.46;46.00
23223;BME280;11780;13.904;100.620;2023-11-19T10:34:24;101241.16;;;29.51;46.48
23223;BME280;11780;13.904;100.620;2023-11-19T10:36:55;101246.22;;;29.43;45.72
23223;BME280;11780;13.904;100.620;2023-11-19T10:39:55;101249.56;;;29.40;45.80
23223;BME280;11780;13.904;100.620;2023-11-19T10:42:26;101263.72;;;29.33;45.59
23223;BME280;11780;13.904;100.620;2023-11-19T10:44:57;101260.59;;;29.40;45.83
23223;BME280;11780;13.904;100.620;2023-11-19T10:47:27;101266.84;;;29.46;46.08
23223;BME280;11780;13.904;100.620;2023-11-19T10:50:03;101272.34;;;29.46;46.34
23223;BME280;11780;13.904;100.620;2023-11-19T10:52:34;101276.84;;;29.42;46.10
23223;BME280;11780;13.904;100.620;2023-11-19T10:55:07;101271.94;;;29.39;46.06
23223;BME280;11780;13.904;100.620;2023-11-19T10:57:43;101278.03;;;29.36;45.97
23223;BME280;11780;13.904;100.620;2023-11-19T11:00:19;101281.53;;;29.41;46.28
23223;BME280;11780;13.904;100.620;2023-11-19T11:02:56;101291.00;;;29.35;45.96
23223;BME280;11780;13.904;100.620;2023-11-19T11:05:32;101293.78;;;29.35;46.19
23223;BME280;11780;13.904;100.620;2023-11-19T11:08:06;101298.13;;;29.36;46.27
23223;BME280;11780;13.904;100.620;2023-11-19T11:10:46;101311.09;;;29.36;46.32
23223;BME280;11780;13.904;100.620;2023-11-19T11:13:23;101304.78;;;29.35;45.93
23223;BME280;11780;13.904;100.620;2023-11-19T11:16:00;101315.81;;;29.35;45.82
23223;BME280;11780;13.904;100.620;2023-11-19T11:18:32;101315.03;;;29.29;46.03
23223;BME280;11780;13.904;100.620;2023-11-19T11:21:09;101318.56;;;29.35;46.37
23223;BME280;11780;13.904;100.620;2023-11-19T11:24:51;101308.63;;;29.34;45.94
23223;BME280;11780;13.904;100.620;2023-11-19T11:30:16;101313.69;;;29.27;45.61
23223;BME280;11780;13.904;100.620;2023-11-19T11:36:17;101322.94;;;29.36;45.77
23223;BME280;11780;13.904;100.620;2023-11-19T11:38:50;101327.94;;;29.34;45.73
23223;BME280;11780;13.904;100.620;2023-11-19T11:41:22;101328.97;;;29.38;45.43
23223;BME280;11780;13.904;100.620;2023-11-19T11:43:56;101331.78;;;29.33;45.86
23223;BME280;11780;13.904;100.620;2023-11-19T11:49:03;101337.06;;;29.29;46.16
23223;BME280;11780;13.904;100.620;2023-11-19T11:51:58;101342.06;;;29.27;45.93
23223;BME280;11780;13.904;100.620;2023-11-19T11:54:29;101336.25;;;29.29;45.83
23223;BME280;11780;13.904;100.620;2023-11-19T11:57:21;101340.94;;;29.28;45.98
23223;BME280;11780;13.904;100.620;2023-11-19T11:59:52;101342.34;;;29.26;45.80
23223;BME280;11780;13.904;100.620;2023-11-19T12:02:25;101347.34;;;29.24;45.96
23223;BME280;11780;13.904;100.620;2023-11-19T12:04:56;101347.94;;;29.21;45.93
23223;BME280;11780;13.904;100.620;2023-11-19T12:07:27;101353.22;;;29.17;45.94
23223;BME280;11780;13.904;100.620;2023-11-19T12:10:08;101358.16;;;29.20;46.04
23223;BME280;11780;13.904;100.620;2023-11-19T12:12:41;101358.09;;;29.25;45.78
23223;BME280;11780;13.904;100.620;2023-11-19T12:15:11;101372.22;;;29.19;45.54
23223;BME280;11780;13.904;100.620;2023-11-19T12:17:48;101364.84;;;29.14;45.83
23223;BME280;11780;13.904;100.620;2023-11-19T12:20:23;101373.41;;;29.12;45.84
23223;BME280;11780;13.904;100.620;2023-11-19T12:22:57;101375.63;;;29.10;45.69
23223;BME280;11780;13.904;100.620;2023-11-19T12:25:27;101375.41;;;29.07;45.71
23223;BME280;11780;13.904;100.620;2023-11-19T12:27:57;101383.47;;;29.03;46.03
23223;BME280;11780;13.904;100.620;2023-11-19T12:30:28;101385.91;;;29.05;45.83
23223;BME280;11780;13.904;100.620;2023-11-19T12:32:59;101391.19;;;29.01;45.96
23223;BME280;11780;13.904;100.620;2023-11-19T12:35:30;101396.16;;;28.99;45.68
23223;BME280;11780;13.904;100.620;2023-11-19T12:38:00;101402.84;;;28.93;45.86
23223;BME280;11780;13.904;100.620;2023-11-19T12:40:30;101406.97;;;28.95;45.95
23223;BME280;11780;13.904;100.620;2023-11-19T12:43:00;101410.00;;;28.94;46.32
23223;BME280;11780;13.904;100.620;2023-11-19T12:47:17;101419.91;;;28.95;47.15
23223;BME280;11780;13.904;100.620;2023-11-19T12:49:57;101417.47;;;28.93;47.20
23223;BME280;11780;13.904;100.620;2023-11-19T12:52:28;101427.63;;;28.93;47.24
23223;BME280;11780;13.904;100.620;2023-11-19T12:54:58;101430.13;;;28.94;47.10
23223;BME280;11780;13.904;100.620;2023-11-19T12:57:56;101431.50;;;28.92;46.92
23223;BME280;11780;13.904;100.620;2023-11-19T13:00:28;101449.44;;;28.89;46.90
23223;BME280;11780;13.904;100.620;2023-11-19T13:02:59;101443.41;;;28.87;46.88
23223;BME280;11780;13.904;100.620;2023-11-19T13:05:31;101456.06;;;28.88;46.90
23223;BME280;11780;13.904;100.620;2023-11-19T13:08:06;101462.06;;;28.95;46.79